createdAt,value
2023-03-10T00:04:28.934Z,0.0
2023-03-10T00:09:39.181Z,0.0
2023-03-10T00:14:41.613Z,0.0
2023-03-10T00:19:48.011Z,0.0
2023-03-10T00:24:54.367Z,0.0
2023-03-10T00:30:00.756Z,0.0
2023-03-10T00:35:07.172Z,0.0
2023-03-10T00:40:13.535Z,0.0
2023-03-10T00:45:21.511Z,0.0
2023-03-10T00:50:27.926Z,0.0
2023-03-10T00:55:39.864Z,0.0
2023-03-10T01:00:46.301Z,0.0
2023-03-10T01:06:16.754Z,0.0
2023-03-10T01:10:55.086Z,0.0
2023-03-10T01:16:01.532Z,0.0
2023-03-10T01:21:07.832Z,0.0
2023-03-10T01:27:06.348Z,0.0
2023-03-10T01:31:20.710Z,0.0
2023-03-10T01:36:51.228Z,0.0
2023-03-10T01:41:33.690Z,0.0
2023-03-10T01:47:14.150Z,0.0
2023-03-10T01:52:25.533Z,0.0
2023-03-10T01:57:27.900Z,0.0
2023-03-10T02:02:34.292Z,0.0
2023-03-10T02:08:04.693Z,0.0
2023-03-10T02:13:01.183Z,0.0
2023-03-10T02:17:57.198Z,0.0
2023-03-10T02:23:02.498Z,0.0
2023-03-10T02:28:09.906Z,0.0
2023-03-10T02:33:16.311Z,0.0
2023-03-10T02:38:23.264Z,0.0
2023-03-10T02:43:19.624Z,0.0
2023-03-10T02:48:36.825Z,0.0
2023-03-10T02:53:44.166Z,0.0
2023-03-10T02:58:50.548Z,0.0
2023-03-10T03:03:47.063Z,0.0
2023-03-10T03:09:06.859Z,0.0
2023-03-10T03:14:13.230Z,0.0
2023-03-10T03:19:19.787Z,0.0
2023-03-10T03:24:26.054Z,0.0
2023-03-10T03:29:32.434Z,0.0
2023-03-10T03:35:04.422Z,0.0
2023-03-10T03:39:46.832Z,0.0
2023-03-10T03:44:54.694Z,0.0
2023-03-10T03:50:01.060Z,0.0
2023-03-10T03:55:07.465Z,0.0
2023-03-10T04:00:13.846Z,0.0
2023-03-10T04:05:20.304Z,0.0
2023-03-10T04:10:26.714Z,0.0
2023-03-10T04:15:33.218Z,0.0
2023-03-10T04:20:39.557Z,0.0
2023-03-10T04:25:45.950Z,0.0
2023-03-10T04:30:52.363Z,0.0
2023-03-10T04:36:35.761Z,0.0
2023-03-10T04:42:55.318Z,0.0
2023-03-10T04:46:49.596Z,0.0
2023-03-10T04:51:45.989Z,0.0
2023-03-10T04:57:02.364Z,0.0
2023-03-10T05:02:08.920Z,0.0
2023-03-10T05:09:05.460Z,0.0
2023-03-10T05:14:16.828Z,0.0
2023-03-10T05:19:03.225Z,0.0
2023-03-10T05:24:29.810Z,0.0
2023-03-10T05:29:14.288Z,0.0
2023-03-10T05:34:24.269Z,0.0
2023-03-10T05:39:30.651Z,4.0
2023-03-10T05:44:37.022Z,4.0
2023-03-10T05:49:43.452Z,12.0
2023-03-10T05:54:53.791Z,28.0
2023-03-10T05:59:56.166Z,48.0
2023-03-10T06:05:02.836Z,56.0
2023-03-10T06:10:09.184Z,88.0
2023-03-10T06:15:39.683Z,104.0
2023-03-10T06:20:46.241Z,108.0
2023-03-10T06:25:28.715Z,156.0
2023-03-10T06:30:25.162Z,240.0
2023-03-10T06:35:41.680Z,268.0
2023-03-10T06:40:48.025Z,276.0
2023-03-10T06:45:54.421Z,336.0
2023-03-10T06:51:04.715Z,540.0
2023-03-10T06:56:11.118Z,552.0
2023-03-10T07:01:03.474Z,656.0
2023-03-10T07:06:22.840Z,1136.0
2023-03-10T07:11:30.256Z,956.0
2023-03-10T07:16:51.707Z,820.0
2023-03-10T07:21:39.009Z,1728.0
2023-03-10T07:26:45.413Z,1760.0
2023-03-10T07:31:51.772Z,1220.0
2023-03-10T07:36:58.147Z,604.0
2023-03-10T07:42:04.544Z,972.0
2023-03-10T07:47:10.983Z,956.0
2023-03-10T07:52:17.478Z,1624.0
2023-03-10T07:57:23.885Z,1712.0
2023-03-10T08:02:30.238Z,1992.0
2023-03-10T08:07:38.298Z,1732.0
2023-03-10T08:12:44.585Z,1480.0
2023-03-10T08:17:52.480Z,2096.0
2023-03-10T08:22:58.946Z,1720.0
2023-03-10T08:28:05.352Z,2072.0
2023-03-10T08:33:11.686Z,2416.0
2023-03-10T08:38:18.053Z,1696.0
2023-03-10T08:43:24.467Z,1348.0
2023-03-10T08:48:30.974Z,1688.0
2023-03-10T08:53:37.567Z,1700.0
2023-03-10T08:58:33.978Z,1812.0
2023-03-10T09:03:50.436Z,2148.0
2023-03-10T09:08:56.743Z,2164.0
2023-03-10T09:14:03.247Z,2040.0
2023-03-10T09:18:59.501Z,1488.0
2023-03-10T09:24:16.105Z,1916.0
2023-03-10T09:29:40.283Z,2336.0
2023-03-10T09:40:06.240Z,2112.0
2023-03-10T09:44:42.440Z,2076.0
2023-03-10T09:49:51.502Z,2192.0
2023-03-10T09:54:45.423Z,2420.0
2023-03-10T10:00:01.958Z,2400.0
2023-03-10T10:05:52.472Z,2128.0
2023-03-10T10:10:14.765Z,2492.0
2023-03-10T10:15:21.149Z,3288.0
2023-03-10T10:20:27.464Z,3796.0
2023-03-10T10:25:53.959Z,2928.0
2023-03-10T10:31:52.540Z,2668.0
2023-03-10T10:36:10.905Z,2840.0
2023-03-10T10:41:13.191Z,2812.0
2023-03-10T10:48:19.790Z,3036.0
2023-03-10T10:51:05.922Z,2752.0
2023-03-10T10:56:12.558Z,2628.0
2023-03-10T11:01:19.012Z,2236.0
2023-03-10T11:06:45.378Z,3328.0
2023-03-10T11:11:51.719Z,3700.0
2023-03-10T11:16:38.086Z,5136.0
2023-03-10T11:22:08.525Z,5268.0
2023-03-10T11:26:50.984Z,5568.0
2023-03-10T11:32:17.624Z,5188.0
2023-03-10T11:38:04.113Z,3580.0
2023-03-10T11:43:22.462Z,2840.0
2023-03-10T11:48:28.853Z,3428.0
2023-03-10T11:53:07.206Z,3608.0
2023-03-10T11:57:29.703Z,4904.0
2023-03-10T12:02:36.292Z,6048.0
2023-03-10T12:07:42.579Z,4472.0
2023-03-10T12:13:13.050Z,4068.0
2023-03-10T12:17:55.392Z,5376.0
2023-03-10T12:23:01.764Z,7048.0
2023-03-10T12:33:14.600Z,8512.0
2023-03-10T12:38:44.990Z,5392.0
2023-03-10T12:46:15.635Z,5584.0
2023-03-10T12:48:53.767Z,3324.0
2023-03-10T12:53:40.066Z,2760.0
2023-03-10T12:59:10.475Z,3056.0
2023-03-10T13:09:43.392Z,1536.0
2023-03-10T13:15:05.795Z,1700.0
2023-03-10T13:19:56.138Z,2388.0
2023-03-10T13:24:18.441Z,1412.0
2023-03-10T13:30:37.036Z,1912.0
2023-03-10T13:34:31.244Z,2264.0
2023-03-10T13:39:37.628Z,2580.0
2023-03-10T13:44:43.994Z,3356.0
2023-03-10T13:49:40.376Z,1760.0
2023-03-10T13:54:56.744Z,1444.0
2023-03-10T14:00:03.181Z,1852.0
2023-03-10T14:05:09.661Z,1800.0
2023-03-10T14:10:16.013Z,1492.0
2023-03-10T14:15:22.401Z,928.0
2023-03-10T14:20:28.781Z,1160.0
2023-03-10T14:25:35.140Z,1212.0
2023-03-10T14:30:41.580Z,1328.0
2023-03-10T14:35:48.029Z,1168.0
2023-03-10T14:40:54.342Z,1296.0
2023-03-10T14:46:01.119Z,1188.0
2023-03-10T14:51:07.223Z,1244.0
2023-03-10T14:56:13.594Z,1056.0
2023-03-10T15:01:20.134Z,936.0
2023-03-10T15:06:26.519Z,820.0
2023-03-10T15:11:37.436Z,740.0
2023-03-10T15:16:39.196Z,916.0
2023-03-10T15:21:45.615Z,972.0
2023-03-10T15:27:36.070Z,1092.0
2023-03-10T15:31:59.365Z,1080.0
2023-03-10T15:37:05.844Z,1072.0
2023-03-10T15:42:12.185Z,940.0
2023-03-10T15:47:18.568Z,820.0
2023-03-10T15:52:24.983Z,884.0
2023-03-10T15:57:31.336Z,720.0
2023-03-10T16:02:37.724Z,660.0
2023-03-10T16:07:44.135Z,580.0
2023-03-10T16:12:50.469Z,596.0
2023-03-10T16:17:56.849Z,484.0
2023-03-10T16:23:03.241Z,392.0
2023-03-10T16:28:09.760Z,264.0
2023-03-10T16:33:17.280Z,256.0
2023-03-10T16:38:22.661Z,260.0
2023-03-10T16:43:53.050Z,208.0
2023-03-10T16:48:35.373Z,172.0
2023-03-10T16:53:41.819Z,188.0
2023-03-10T17:00:20.357Z,192.0
2023-03-10T17:03:54.651Z,180.0
2023-03-10T17:09:00.967Z,144.0
2023-03-10T17:14:07.432Z,104.0
2023-03-10T17:19:13.819Z,92.0
2023-03-10T17:24:20.240Z,60.0
2023-03-10T17:30:19.831Z,40.0
2023-03-10T17:34:38.109Z,24.0
2023-03-10T17:40:04.544Z,12.0
2023-03-10T17:44:50.876Z,4.0
2023-03-10T17:49:57.255Z,4.0
2023-03-10T17:55:47.734Z,0.0
2023-03-10T18:00:34.065Z,0.0
2023-03-10T18:05:16.523Z,0.0
2023-03-10T18:10:47.049Z,0.0
2023-03-10T18:15:29.417Z,0.0
2023-03-10T18:20:35.802Z,0.0
2023-03-10T18:26:42.294Z,0.0
2023-03-10T18:31:32.799Z,0.0
2023-03-10T18:40:55.924Z,0.0
2023-03-10T18:41:01.947Z,0.0
2023-03-10T18:47:42.290Z,0.0
2023-03-10T18:51:40.512Z,0.0
2023-03-10T18:56:22.956Z,0.0
2023-03-10T19:01:29.397Z,0.0
2023-03-10T19:06:35.750Z,0.0
2023-03-10T19:12:06.200Z,0.0
2023-03-10T19:16:51.645Z,0.0
2023-03-10T19:23:30.245Z,0.0
2023-03-10T19:27:04.450Z,0.0
2023-03-10T19:33:11.021Z,0.0
2023-03-10T19:37:45.357Z,0.0
2023-03-10T19:42:43.833Z,0.0
2023-03-10T19:49:50.266Z,0.0
2023-03-10T19:53:50.267Z,0.0
2023-03-10T19:59:36.068Z,0.0
2023-03-10T20:09:07.183Z,0.0
2023-03-10T20:16:00.373Z,0.0
2023-03-10T20:29:25.191Z,0.0
2023-03-10T20:33:24.610Z,0.0
2023-03-10T20:33:43.243Z,0.0
2023-03-10T20:38:20.587Z,0.0
2023-03-10T20:39:33.778Z,0.0
2023-03-10T20:50:02.908Z,0.0
2023-03-10T20:54:14.964Z,0.0
2023-03-10T20:54:30.918Z,0.0
2023-03-10T21:00:49.569Z,0.0
2023-03-10T21:04:48.402Z,0.0
2023-03-10T21:09:30.899Z,0.0
2023-03-10T21:14:39.481Z,0.0
2023-03-10T21:20:06.471Z,0.0
2023-03-10T21:25:54.113Z,0.0
2023-03-10T21:31:16.279Z,0.0
2023-03-10T21:35:34.616Z,0.0
2023-03-10T21:41:17.124Z,0.0
2023-03-10T21:45:23.946Z,0.0
2023-03-10T21:50:30.426Z,0.0
2023-03-10T21:56:40.203Z,0.0
2023-03-10T22:02:20.212Z,0.0
2023-03-10T22:12:29.838Z,0.0
2023-03-10T22:22:28.605Z,0.0
2023-03-10T22:29:32.066Z,0.0
2023-03-10T22:34:39.383Z,0.0
2023-03-10T22:39:46.114Z,0.0
2023-03-10T22:45:12.618Z,0.0
2023-03-10T22:49:58.947Z,0.0
2023-03-10T22:55:25.393Z,0.0
2023-03-10T23:00:35.786Z,0.0
2023-03-10T23:05:08.119Z,0.0
2023-03-10T23:10:24.521Z,0.0
2023-03-10T23:15:51.072Z,0.0
2023-03-10T23:20:57.551Z,0.0
2023-03-10T23:25:43.875Z,0.0
2023-03-10T23:30:50.247Z,0.0
2023-03-10T23:35:56.794Z,0.0
2023-03-10T23:41:03.045Z,0.0
2023-03-10T23:46:53.476Z,0.0
2023-03-10T23:51:15.818Z,0.0
2023-03-10T23:56:22.200Z,0.0
